createdAt,value
2019-04-30T00:00:18.256Z,8.29
2019-04-30T00:01:18.778Z,8.30
2019-04-30T00:02:16.356Z,8.33
2019-04-30T00:03:19.408Z,8.37
2019-04-30T00:04:17.015Z,8.34
2019-04-30T00:05:18.670Z,8.36
2019-04-30T00:06:16.385Z,8.31
2019-04-30T00:07:18.984Z,8.33
2019-04-30T00:08:16.577Z,8.37
2019-04-30T00:09:18.867Z,8.34
2019-04-30T00:10:16.537Z,8.36
2019-04-30T00:11:19.359Z,8.34
2019-04-30T00:12:16.900Z,8.36
2019-04-30T00:13:20.569Z,8.40
2019-04-30T00:14:16.372Z,8.36
2019-04-30T00:15:19.375Z,8.34
2019-04-30T00:16:16.945Z,8.36
2019-04-30T00:17:19.363Z,8.34
2019-04-30T00:18:17.097Z,8.39
2019-04-30T00:19:19.550Z,8.37
2019-04-30T00:20:17.647Z,8.36
2019-04-30T00:21:18.634Z,8.39
2019-04-30T00:22:17.178Z,8.34
2019-04-30T00:23:18.001Z,8.39
2019-04-30T00:24:16.886Z,8.41
2019-04-30T00:25:19.489Z,8.40
2019-04-30T00:26:17.216Z,8.40
2019-04-30T00:27:16.633Z,8.41
2019-04-30T00:28:16.886Z,8.41
2019-04-30T00:29:26.364Z,8.44
2019-04-30T00:30:17.067Z,8.44
2019-04-30T00:31:23.441Z,8.41
2019-04-30T00:32:16.570Z,8.39
2019-04-30T00:33:22.018Z,8.43
2019-04-30T00:34:16.292Z,8.44
2019-04-30T00:35:19.476Z,8.44
2019-04-30T00:36:17.318Z,8.45
2019-04-30T00:37:18.742Z,8.45
2019-04-30T00:38:16.313Z,8.44
2019-04-30T00:39:16.686Z,8.47
2019-04-30T00:40:17.144Z,8.45
2019-04-30T00:41:17.161Z,8.45
2019-04-30T00:42:23.475Z,8.50
2019-04-30T00:43:16.627Z,8.48
2019-04-30T00:44:19.791Z,8.50
2019-04-30T00:45:17.066Z,8.47
2019-04-30T00:46:17.180Z,8.48
2019-04-30T00:47:16.721Z,8.52
2019-04-30T00:48:26.557Z,8.52
2019-04-30T00:49:22.826Z,8.50
2019-04-30T00:50:16.780Z,8.48
2019-04-30T00:51:20.949Z,8.50
2019-04-30T00:52:16.886Z,8.50
2019-04-30T00:53:17.157Z,8.51
2019-04-30T00:54:17.618Z,8.52
2019-04-30T00:55:17.040Z,8.51
2019-04-30T00:56:19.821Z,8.51
2019-04-30T00:57:17.052Z,8.50
2019-04-30T00:58:17.382Z,8.45
2019-04-30T00:59:17.141Z,8.50
2019-04-30T01:00:17.653Z,8.50
2019-04-30T01:01:16.458Z,8.50
2019-04-30T01:02:18.097Z,8.52
2019-04-30T01:03:16.396Z,8.52
2019-04-30T01:04:19.325Z,8.52
2019-04-30T01:05:16.758Z,8.52
2019-04-30T01:06:23.942Z,8.52
2019-04-30T01:07:16.797Z,8.52
2019-04-30T01:08:21.034Z,8.57
2019-04-30T01:09:16.409Z,8.55
2019-04-30T01:10:19.489Z,8.55
2019-04-30T01:11:16.742Z,8.54
2019-04-30T01:12:24.537Z,8.57
2019-04-30T01:13:16.708Z,8.55
2019-04-30T01:14:18.707Z,8.54
2019-04-30T01:15:16.218Z,8.55
2019-04-30T01:16:16.492Z,8.58
2019-04-30T01:17:16.754Z,8.58
2019-04-30T01:18:17.021Z,8.55
2019-04-30T01:19:27.141Z,8.57
2019-04-30T01:20:16.532Z,8.55
2019-04-30T01:21:18.379Z,8.55
2019-04-30T01:22:19.329Z,8.55
2019-04-30T01:23:16.250Z,8.59
2019-04-30T01:24:16.513Z,8.57
2019-04-30T01:25:16.778Z,8.58
2019-04-30T01:26:16.273Z,8.55
2019-04-30T01:27:18.602Z,8.55
2019-04-30T01:28:22.681Z,8.59
2019-04-30T01:29:16.673Z,8.57
2019-04-30T01:30:18.509Z,8.57
2019-04-30T01:31:18.721Z,8.59
2019-04-30T01:32:17.279Z,8.59
2019-04-30T01:33:16.268Z,8.58
2019-04-30T01:34:16.525Z,8.61
2019-04-30T01:35:18.632Z,8.59
2019-04-30T01:36:16.476Z,8.62
2019-04-30T01:37:20.140Z,8.68
2019-04-30T01:38:16.781Z,8.62
2019-04-30T01:39:17.091Z,8.64
2019-04-30T01:40:16.363Z,8.64
2019-04-30T01:41:20.169Z,8.67
2019-04-30T01:42:16.345Z,8.65
2019-04-30T01:43:16.594Z,8.64
2019-04-30T01:44:16.889Z,8.68
2019-04-30T01:45:18.726Z,8.62
2019-04-30T01:46:18.884Z,8.69
2019-04-30T01:47:16.281Z,8.69
2019-04-30T01:48:16.553Z,8.64
2019-04-30T01:49:19.841Z,8.68
2019-04-30T01:50:16.480Z,8.67
2019-04-30T01:51:18.272Z,8.65
2019-04-30T01:52:17.086Z,8.65
2019-04-30T01:53:16.357Z,8.65
2019-04-30T01:54:18.614Z,8.67
2019-04-30T01:55:16.618Z,8.67
2019-04-30T01:56:16.887Z,8.72
2019-04-30T01:57:16.469Z,8.69
2019-04-30T01:58:19.114Z,8.68
2019-04-30T01:59:16.753Z,8.72
2019-04-30T02:00:17.019Z,8.72
2019-04-30T02:01:18.907Z,8.68
2019-04-30T02:02:16.324Z,8.69
2019-04-30T02:03:16.586Z,8.67
2019-04-30T02:04:16.840Z,8.71
2019-04-30T02:05:18.799Z,8.71
2019-04-30T02:06:16.206Z,8.69
2019-04-30T02:07:16.468Z,8.67
2019-04-30T02:08:16.741Z,8.68
2019-04-30T02:09:18.824Z,8.71
2019-04-30T02:10:18.581Z,8.75
2019-04-30T02:11:18.815Z,8.72
2019-04-30T02:12:16.387Z,8.74
2019-04-30T02:13:16.657Z,8.72
2019-04-30T02:14:18.815Z,8.72
2019-04-30T02:15:16.275Z,8.74
2019-04-30T02:16:18.674Z,8.69
2019-04-30T02:17:16.407Z,8.69
2019-04-30T02:18:16.687Z,8.71
2019-04-30T02:19:18.528Z,8.71
2019-04-30T02:20:18.572Z,8.72
2019-04-30T02:21:16.232Z,8.71
2019-04-30T02:22:16.507Z,8.69
2019-04-30T02:23:16.772Z,8.69
2019-04-30T02:24:19.032Z,8.75
2019-04-30T02:25:16.565Z,8.74
2019-04-30T02:26:18.555Z,8.74
2019-04-30T02:27:19.090Z,8.72
2019-04-30T02:28:17.071Z,8.71
2019-04-30T02:29:16.400Z,8.71
2019-04-30T02:30:16.684Z,8.75
2019-04-30T02:31:19.317Z,8.75
2019-04-30T02:32:16.381Z,8.76
2019-04-30T02:33:19.495Z,8.74
2019-04-30T02:34:16.436Z,8.72
2019-04-30T02:35:19.284Z,8.74
2019-04-30T02:36:16.806Z,8.72
2019-04-30T02:37:17.109Z,8.74
2019-04-30T02:38:16.370Z,8.72
2019-04-30T02:39:16.631Z,8.75
2019-04-30T02:40:16.915Z,8.76
2019-04-30T02:41:19.259Z,8.75
2019-04-30T02:42:16.649Z,8.78
2019-04-30T02:43:16.925Z,8.74
2019-04-30T02:44:19.373Z,8.75
2019-04-30T02:45:16.981Z,8.76
2019-04-30T02:46:19.028Z,8.78
2019-04-30T02:47:16.571Z,8.76
2019-04-30T02:48:19.262Z,8.76
2019-04-30T02:49:16.771Z,8.76
2019-04-30T02:50:19.534Z,8.76
2019-04-30T02:51:20.013Z,8.78
2019-04-30T02:52:16.284Z,8.75
2019-04-30T02:53:16.554Z,8.75
2019-04-30T02:54:19.602Z,8.76
2019-04-30T02:55:16.239Z,8.74
2019-04-30T02:56:16.512Z,8.75
2019-04-30T02:57:16.802Z,8.75
2019-04-30T02:58:20.798Z,8.75
2019-04-30T02:59:16.478Z,8.76
2019-04-30T03:00:19.932Z,8.76
2019-04-30T03:01:16.777Z,8.79
2019-04-30T03:02:19.532Z,8.79
2019-04-30T03:03:16.929Z,8.75
2019-04-30T03:04:19.520Z,8.78
2019-04-30T03:05:19.539Z,8.76
2019-04-30T03:06:16.721Z,8.76
2019-04-30T03:07:19.262Z,8.74
2019-04-30T03:08:19.249Z,8.74
2019-04-30T03:09:16.257Z,8.72
2019-04-30T03:10:19.537Z,8.76
2019-04-30T03:11:16.593Z,8.74
2019-04-30T03:12:16.861Z,8.74
2019-04-30T03:13:19.948Z,8.75
2019-04-30T03:14:16.462Z,8.74
2019-04-30T03:15:19.068Z,8.72
2019-04-30T03:16:16.350Z,8.76
2019-04-30T03:17:16.619Z,8.76
2019-04-30T03:18:16.888Z,8.75
2019-04-30T03:19:16.343Z,8.75
2019-04-30T03:20:28.871Z,8.75
2019-04-30T03:21:19.098Z,8.75
2019-04-30T03:22:16.490Z,8.78
2019-04-30T03:23:19.382Z,8.74
2019-04-30T03:24:16.896Z,8.74
2019-04-30T03:25:19.166Z,8.74
2019-04-30T03:26:16.607Z,8.74
2019-04-30T03:27:16.883Z,8.75
2019-04-30T03:28:19.925Z,8.74
2019-04-30T03:29:16.660Z,8.68
2019-04-30T03:30:20.669Z,8.76
2019-04-30T03:31:17.003Z,8.72
2019-04-30T03:32:16.279Z,8.74
2019-04-30T03:33:16.565Z,8.71
2019-04-30T03:34:17.911Z,8.75
2019-04-30T03:35:17.176Z,8.72
2019-04-30T03:36:20.476Z,8.72
2019-04-30T03:37:16.305Z,8.75
2019-04-30T03:38:16.577Z,8.74
2019-04-30T03:39:19.327Z,8.69
2019-04-30T03:40:16.329Z,8.69
2019-04-30T03:41:16.348Z,8.69
2019-04-30T03:42:16.280Z,8.71
2019-04-30T03:43:16.553Z,8.71
2019-04-30T03:44:22.285Z,8.69
2019-04-30T03:45:16.404Z,8.68
2019-04-30T03:46:19.258Z,8.69
2019-04-30T03:47:16.815Z,8.62
2019-04-30T03:48:19.797Z,8.68
2019-04-30T03:49:16.477Z,8.68
2019-04-30T03:50:19.592Z,8.67
2019-04-30T03:51:16.804Z,8.65
2019-04-30T03:52:19.650Z,8.65
2019-04-30T03:53:16.335Z,8.64
2019-04-30T03:54:19.099Z,8.62
2019-04-30T03:55:16.874Z,8.64
2019-04-30T03:56:19.992Z,8.62
2019-04-30T03:57:16.216Z,8.62
2019-04-30T03:58:17.337Z,8.58
2019-04-30T03:59:16.847Z,8.59
2019-04-30T04:00:17.057Z,8.59
2019-04-30T04:01:19.447Z,8.57
2019-04-30T04:02:16.985Z,8.55
2019-04-30T04:03:16.265Z,8.57
2019-04-30T04:04:16.556Z,8.58
2019-04-30T04:05:16.818Z,8.55
2019-04-30T04:06:21.034Z,8.55
2019-04-30T04:07:16.858Z,8.55
2019-04-30T04:08:19.315Z,8.54
2019-04-30T04:09:16.939Z,8.57
2019-04-30T04:10:16.364Z,8.54
2019-04-30T04:11:16.421Z,8.51
2019-04-30T04:12:16.725Z,8.51
2019-04-30T04:13:19.152Z,8.51
2019-04-30T04:14:19.565Z,8.52
2019-04-30T04:15:16.227Z,8.54
2019-04-30T04:16:18.955Z,8.55
2019-04-30T04:17:16.904Z,8.55
2019-04-30T04:18:16.400Z,8.54
2019-04-30T04:19:19.468Z,8.55
2019-04-30T04:20:17.068Z,8.54
2019-04-30T04:21:19.795Z,8.54
2019-04-30T04:22:17.073Z,8.52
2019-04-30T04:23:19.216Z,8.52
2019-04-30T04:24:16.700Z,8.51
2019-04-30T04:25:20.077Z,8.50
2019-04-30T04:26:16.934Z,8.45
2019-04-30T04:27:16.210Z,8.41
2019-04-30T04:28:16.487Z,8.45
2019-04-30T04:29:19.354Z,8.39
2019-04-30T04:30:17.113Z,8.43
2019-04-30T04:31:19.256Z,8.40
2019-04-30T04:32:16.826Z,8.36
2019-04-30T04:33:19.739Z,8.37
2019-04-30T04:34:19.416Z,8.36
2019-04-30T04:35:19.470Z,8.34
2019-04-30T04:36:16.317Z,8.29
2019-04-30T04:37:16.586Z,8.29
2019-04-30T04:38:16.889Z,8.26
2019-04-30T04:39:19.862Z,8.23
2019-04-30T04:40:16.758Z,8.23
2019-04-30T04:41:19.570Z,8.23
2019-04-30T04:42:19.345Z,8.24
2019-04-30T04:43:17.218Z,8.27
2019-04-30T04:44:16.368Z,8.29
2019-04-30T04:45:19.562Z,8.27
2019-04-30T04:46:16.303Z,8.29
2019-04-30T04:47:19.013Z,8.27
2019-04-30T04:48:19.308Z,8.24
2019-04-30T04:49:16.347Z,8.26
2019-04-30T04:50:16.631Z,8.27
2019-04-30T04:51:28.636Z,8.24
2019-04-30T04:52:16.729Z,8.27
2019-04-30T04:53:19.265Z,8.26
2019-04-30T04:54:16.983Z,8.24
2019-04-30T04:55:16.260Z,8.20
2019-04-30T04:56:18.938Z,8.24
2019-04-30T04:57:19.017Z,8.26
2019-04-30T04:58:21.151Z,8.31
2019-04-30T04:59:17.151Z,8.34
2019-04-30T05:00:16.434Z,8.40
2019-04-30T05:01:16.461Z,8.41
2019-04-30T05:02:16.717Z,8.40
2019-04-30T05:03:16.979Z,8.40
2019-04-30T05:04:16.273Z,8.36
2019-04-30T05:05:16.545Z,8.30
2019-04-30T05:06:16.815Z,8.29
2019-04-30T05:07:17.086Z,8.30
2019-04-30T05:08:16.348Z,8.30
2019-04-30T05:09:16.614Z,8.27
2019-04-30T05:10:19.049Z,8.19
2019-04-30T05:11:16.923Z,8.13
2019-04-30T05:12:18.532Z,8.14
2019-04-30T05:13:16.879Z,8.13
2019-04-30T05:14:18.936Z,8.12
2019-04-30T05:15:16.418Z,8.09
2019-04-30T05:16:16.690Z,8.02
2019-04-30T05:17:16.971Z,8.00
2019-04-30T05:18:16.251Z,8.02
2019-04-30T05:19:18.236Z,7.99
2019-04-30T05:20:17.045Z,7.98
2019-04-30T05:21:18.727Z,7.96
2019-04-30T05:22:18.925Z,7.96
2019-04-30T05:23:16.357Z,7.99
2019-04-30T05:24:16.623Z,7.99
2019-04-30T05:25:18.608Z,7.95
2019-04-30T05:26:19.042Z,7.89
2019-04-30T05:27:16.508Z,7.92
2019-04-30T05:28:18.744Z,7.91
2019-04-30T05:29:16.339Z,7.88
2019-04-30T05:30:16.626Z,7.86
2019-04-30T05:31:18.421Z,7.86
2019-04-30T05:32:16.462Z,7.82
2019-04-30T05:33:18.205Z,7.84
2019-04-30T05:34:18.646Z,7.93
2019-04-30T05:35:16.254Z,7.96
2019-04-30T05:36:16.540Z,7.82
2019-04-30T05:37:18.680Z,7.80
2019-04-30T05:38:18.532Z,7.78
2019-04-30T05:39:16.280Z,7.75
2019-04-30T05:40:18.677Z,7.75
2019-04-30T05:41:16.615Z,7.84
2019-04-30T05:42:18.198Z,7.81
2019-04-30T05:43:18.818Z,7.93
2019-04-30T05:44:18.393Z,7.91
2019-04-30T05:45:16.874Z,7.88
2019-04-30T05:46:17.156Z,7.89
2019-04-30T05:47:16.418Z,7.92
2019-04-30T05:48:18.441Z,7.95
2019-04-30T05:49:18.837Z,7.91
2019-04-30T05:50:16.764Z,7.92
2019-04-30T05:51:19.190Z,7.91
2019-04-30T05:52:16.517Z,7.89
2019-04-30T05:53:16.784Z,7.88
2019-04-30T05:54:16.267Z,7.89
2019-04-30T05:55:16.550Z,7.84
2019-04-30T05:56:16.810Z,7.84
2019-04-30T05:57:17.071Z,7.84
2019-04-30T05:58:16.352Z,7.81
2019-04-30T05:59:16.615Z,7.80
2019-04-30T06:00:18.823Z,7.80
2019-04-30T06:01:16.890Z,7.81
2019-04-30T06:02:19.256Z,7.81
2019-04-30T06:03:25.932Z,7.82
2019-04-30T06:04:17.174Z,7.82
2019-04-30T06:05:16.438Z,7.84
2019-04-30T06:06:16.698Z,7.78
2019-04-30T06:07:18.840Z,7.80
2019-04-30T06:08:16.371Z,7.81
2019-04-30T06:09:30.320Z,7.80
2019-04-30T06:10:16.973Z,7.77
2019-04-30T06:11:17.027Z,7.88
2019-04-30T06:12:16.321Z,7.89
2019-04-30T06:13:16.591Z,7.98
2019-04-30T06:14:18.555Z,7.98
2019-04-30T06:15:17.397Z,7.96
2019-04-30T06:16:18.375Z,7.98
2019-04-30T06:17:17.133Z,8.03
2019-04-30T06:18:18.519Z,8.12
2019-04-30T06:19:16.749Z,8.06
2019-04-30T06:20:18.982Z,8.03
2019-04-30T06:21:17.053Z,8.00
2019-04-30T06:22:16.707Z,7.99
2019-04-30T06:23:16.968Z,7.95
2019-04-30T06:24:16.237Z,7.98
2019-04-30T06:25:28.198Z,7.96
2019-04-30T06:26:16.463Z,8.03
2019-04-30T06:27:16.723Z,7.95
2019-04-30T06:28:16.372Z,7.86
2019-04-30T06:29:16.644Z,7.89
2019-04-30T06:30:16.911Z,7.95
2019-04-30T06:31:18.666Z,7.96
2019-04-30T06:32:18.469Z,8.03
2019-04-30T06:33:18.906Z,8.10
2019-04-30T06:34:16.650Z,8.09
2019-04-30T06:35:16.904Z,8.14
2019-04-30T06:36:19.017Z,8.20
2019-04-30T06:37:16.432Z,8.19
2019-04-30T06:38:18.411Z,8.21
2019-04-30T06:39:18.595Z,8.24
2019-04-30T06:40:19.416Z,8.20
2019-04-30T06:41:17.148Z,8.27
2019-04-30T06:42:16.421Z,8.30
2019-04-30T06:43:16.682Z,8.37
2019-04-30T06:44:16.218Z,8.47
2019-04-30T06:45:16.494Z,8.30
2019-04-30T06:46:18.551Z,8.23
2019-04-30T06:47:18.762Z,8.54
2019-04-30T06:48:16.252Z,8.80
2019-04-30T06:49:16.520Z,8.85
2019-04-30T06:50:16.788Z,8.92
2019-04-30T06:51:18.789Z,8.94
2019-04-30T06:52:20.460Z,9.03
2019-04-30T06:53:16.852Z,9.37
2019-04-30T06:54:19.142Z,9.23
2019-04-30T06:55:16.525Z,9.47
2019-04-30T06:56:18.803Z,9.58
2019-04-30T06:57:16.277Z,9.38
2019-04-30T06:58:16.564Z,9.29
2019-04-30T06:59:16.833Z,9.30
2019-04-30T07:00:17.113Z,9.03
2019-04-30T07:01:18.940Z,9.10
2019-04-30T07:02:16.375Z,9.23
2019-04-30T07:03:16.645Z,8.96
2019-04-30T07:04:16.919Z,8.91
2019-04-30T07:05:18.529Z,8.72
2019-04-30T07:06:27.406Z,8.74
2019-04-30T07:07:19.155Z,8.69
2019-04-30T07:08:16.650Z,8.82
2019-04-30T07:09:16.930Z,8.82
2019-04-30T07:10:18.046Z,8.76
2019-04-30T07:11:16.252Z,8.84
2019-04-30T07:12:23.625Z,8.82
2019-04-30T07:13:18.754Z,8.80
2019-04-30T07:14:19.351Z,8.80
2019-04-30T07:15:16.881Z,8.78
2019-04-30T07:16:18.967Z,9.03
2019-04-30T07:17:16.392Z,9.19
2019-04-30T07:18:16.682Z,8.99
2019-04-30T07:19:29.783Z,8.84
2019-04-30T07:20:18.945Z,8.50
2019-04-30T07:21:16.863Z,8.47
2019-04-30T07:22:19.022Z,8.55
2019-04-30T07:23:18.793Z,8.67
2019-04-30T07:24:20.686Z,8.80
2019-04-30T07:25:16.397Z,8.69
2019-04-30T07:26:19.582Z,8.78
2019-04-30T07:27:21.601Z,8.89
2019-04-30T07:28:16.554Z,8.92
2019-04-30T07:29:16.816Z,9.12
2019-04-30T07:30:18.870Z,8.94
2019-04-30T07:31:19.096Z,8.76
2019-04-30T07:32:19.087Z,8.62
2019-04-30T07:33:20.657Z,8.61
2019-04-30T07:34:16.308Z,8.61
2019-04-30T07:35:16.611Z,8.65
2019-04-30T07:36:16.879Z,8.71
2019-04-30T07:37:20.718Z,8.74
2019-04-30T07:38:19.213Z,8.85
2019-04-30T07:39:16.743Z,8.84
2019-04-30T07:40:18.450Z,8.95
2019-04-30T07:41:18.866Z,9.10
2019-04-30T07:42:16.354Z,9.33
2019-04-30T07:43:18.811Z,9.22
2019-04-30T07:44:29.956Z,9.06
2019-04-30T07:45:16.898Z,9.10
2019-04-30T07:46:16.600Z,9.05
2019-04-30T07:47:18.874Z,9.05
2019-04-30T07:48:20.455Z,9.13
2019-04-30T07:49:16.515Z,9.24
2019-04-30T07:50:17.281Z,9.26
2019-04-30T07:51:19.806Z,9.53
2019-04-30T07:52:18.201Z,9.59
2019-04-30T07:53:18.738Z,9.75
2019-04-30T07:54:18.920Z,9.62
2019-04-30T07:55:16.342Z,9.72
2019-04-30T07:56:25.117Z,9.86
2019-04-30T07:57:16.600Z,9.68
2019-04-30T07:58:19.814Z,9.80
2019-04-30T07:59:16.881Z,9.54
2019-04-30T08:00:19.177Z,9.38
2019-04-30T08:01:16.219Z,9.41
2019-04-30T08:02:16.494Z,9.45
2019-04-30T08:03:19.942Z,9.22
2019-04-30T08:04:16.364Z,9.23
2019-04-30T08:05:16.631Z,9.29
2019-04-30T08:06:18.872Z,9.27
2019-04-30T08:07:16.583Z,9.30
2019-04-30T08:09:19.187Z,9.03
2019-04-30T08:09:36.726Z,9.30
2019-04-30T08:10:18.564Z,9.02
2019-04-30T08:11:23.731Z,9.24
2019-04-30T08:12:22.965Z,9.38
2019-04-30T08:13:16.589Z,9.54
2019-04-30T08:14:18.447Z,9.31
2019-04-30T08:15:16.469Z,9.12
2019-04-30T08:16:18.516Z,9.23
2019-04-30T08:17:18.645Z,9.30
2019-04-30T08:18:16.227Z,9.23
2019-04-30T08:19:16.489Z,9.07
2019-04-30T08:20:16.750Z,9.03
2019-04-30T08:21:18.781Z,9.03
2019-04-30T08:22:16.373Z,9.05
2019-04-30T08:23:31.107Z,9.10
2019-04-30T08:24:18.858Z,9.40
2019-04-30T08:25:18.916Z,9.41
2019-04-30T08:26:16.209Z,9.51
2019-04-30T08:27:16.494Z,9.30
2019-04-30T08:28:18.543Z,9.40
2019-04-30T08:29:17.024Z,9.65
2019-04-30T08:30:23.633Z,9.66
2019-04-30T08:31:16.345Z,9.69
2019-04-30T08:32:16.602Z,9.68
2019-04-30T08:33:16.339Z,9.72
2019-04-30T08:34:16.614Z,9.72
2019-04-30T08:35:16.882Z,9.74
2019-04-30T08:36:17.161Z,9.76
2019-04-30T08:37:17.545Z,9.68
2019-04-30T08:38:16.469Z,9.54
2019-04-30T08:39:16.737Z,9.53
2019-04-30T08:40:18.861Z,9.58
2019-04-30T08:41:19.074Z,9.74
2019-04-30T08:42:28.782Z,9.72
2019-04-30T08:43:17.157Z,9.74
2019-04-30T08:44:16.418Z,9.66
2019-04-30T08:45:16.707Z,9.82
2019-04-30T08:46:18.760Z,9.99
2019-04-30T08:47:18.437Z,9.98
2019-04-30T08:48:18.415Z,9.95
2019-04-30T08:49:16.837Z,9.95
2019-04-30T08:50:16.997Z,9.95
2019-04-30T08:51:18.665Z,9.98
2019-04-30T08:52:19.107Z,10.05
2019-04-30T08:53:26.417Z,10.12
2019-04-30T08:54:16.436Z,9.98
2019-04-30T08:55:17.042Z,10.05
2019-04-30T08:56:16.303Z,10.39
2019-04-30T08:57:18.749Z,10.41
2019-04-30T08:58:16.574Z,10.81
2019-04-30T08:59:16.864Z,10.58
2019-04-30T09:00:17.153Z,10.82
2019-04-30T09:01:19.031Z,10.85
2019-04-30T09:02:17.043Z,10.91
2019-04-30T09:03:16.864Z,10.98
2019-04-30T09:04:17.138Z,10.75
2019-04-30T09:05:18.380Z,10.72
2019-04-30T09:06:16.838Z,10.78
2019-04-30T09:07:17.095Z,10.74
2019-04-30T09:08:16.369Z,10.75
2019-04-30T09:09:18.606Z,10.94
2019-04-30T09:10:19.093Z,10.98
2019-04-30T09:11:23.073Z,11.17
2019-04-30T09:12:16.453Z,11.05
2019-04-30T09:13:16.710Z,10.70
2019-04-30T09:14:18.639Z,10.60
2019-04-30T09:15:18.810Z,10.58
2019-04-30T09:16:16.216Z,10.77
2019-04-30T09:17:16.473Z,10.72
2019-04-30T09:18:18.853Z,10.63
2019-04-30T09:19:16.466Z,10.50
2019-04-30T09:20:16.742Z,10.95
2019-04-30T09:21:18.216Z,11.34
2019-04-30T09:22:17.011Z,11.33
2019-04-30T09:23:16.284Z,11.40
2019-04-30T09:24:16.547Z,10.96
2019-04-30T09:25:16.824Z,10.91
2019-04-30T09:26:18.681Z,10.77
2019-04-30T09:27:17.122Z,10.64
2019-04-30T09:28:16.923Z,10.88
2019-04-30T09:29:18.947Z,10.82
2019-04-30T09:30:16.465Z,10.78
2019-04-30T09:31:16.521Z,10.67
2019-04-30T09:32:16.789Z,10.70
2019-04-30T09:33:17.063Z,10.95
2019-04-30T09:34:18.444Z,11.03
2019-04-30T09:35:16.482Z,11.07
2019-04-30T09:36:16.763Z,11.30
2019-04-30T09:37:18.655Z,11.17
2019-04-30T09:38:17.129Z,11.40
2019-04-30T09:39:16.408Z,11.57
2019-04-30T09:40:18.959Z,11.57
2019-04-30T09:41:16.740Z,11.51
2019-04-30T09:42:17.002Z,11.40
2019-04-30T09:43:18.632Z,11.40
2019-04-30T09:44:17.125Z,11.49
2019-04-30T09:45:16.393Z,11.60
2019-04-30T09:46:24.295Z,11.53
2019-04-30T09:47:16.528Z,11.51
2019-04-30T09:48:18.812Z,11.67
2019-04-30T09:49:16.477Z,11.71
2019-04-30T09:50:18.670Z,11.31
2019-04-30T09:51:17.174Z,11.44
2019-04-30T09:52:16.992Z,11.43
2019-04-30T09:53:17.022Z,11.74
2019-04-30T09:54:16.549Z,11.86
2019-04-30T09:55:16.704Z,11.60
2019-04-30T09:56:16.967Z,11.68
2019-04-30T09:57:16.229Z,11.81
2019-04-30T09:58:18.024Z,11.93
2019-04-30T09:59:16.456Z,11.82
2019-04-30T10:00:16.748Z,11.75
2019-04-30T10:01:16.780Z,11.64
2019-04-30T10:02:18.904Z,11.54
2019-04-30T10:03:17.242Z,11.57
2019-04-30T10:04:16.990Z,11.51
2019-04-30T10:05:18.512Z,11.42
2019-04-30T10:06:16.510Z,11.49
2019-04-30T10:07:16.773Z,11.44
2019-04-30T10:08:18.844Z,11.58
2019-04-30T10:09:16.587Z,11.88
2019-04-30T10:10:18.701Z,12.29
2019-04-30T10:11:16.909Z,12.36
2019-04-30T10:12:18.977Z,12.19
2019-04-30T10:13:16.929Z,12.11
2019-04-30T10:14:17.186Z,12.22
2019-04-30T10:15:16.461Z,12.29
2019-04-30T10:16:16.729Z,11.98
2019-04-30T10:17:16.995Z,11.72
2019-04-30T10:18:16.257Z,11.72
2019-04-30T10:19:16.523Z,11.85
2019-04-30T10:20:16.800Z,11.92
2019-04-30T10:21:16.831Z,11.65
2019-04-30T10:22:16.301Z,11.68
2019-04-30T10:23:16.563Z,11.77
2019-04-30T10:24:16.828Z,11.85
2019-04-30T10:25:17.096Z,11.82
2019-04-30T10:26:16.372Z,11.86
2019-04-30T10:27:18.836Z,11.78
2019-04-30T10:28:16.693Z,11.85
2019-04-30T10:29:16.963Z,11.75
2019-04-30T10:30:16.254Z,11.85
2019-04-30T10:31:16.303Z,12.05
2019-04-30T10:32:18.520Z,12.26
2019-04-30T10:33:17.062Z,12.36
2019-04-30T10:34:16.333Z,12.72
2019-04-30T10:35:18.307Z,12.71
2019-04-30T10:36:16.625Z,12.84
2019-04-30T10:37:18.639Z,12.96
2019-04-30T10:38:16.303Z,13.12
2019-04-30T10:39:16.578Z,12.61
2019-04-30T10:40:19.942Z,12.26
2019-04-30T10:41:18.768Z,12.40
2019-04-30T10:42:16.194Z,12.95
2019-04-30T10:43:16.465Z,12.92
2019-04-30T10:44:18.629Z,12.82
2019-04-30T10:45:18.568Z,12.78
2019-04-30T10:46:16.922Z,12.98
2019-04-30T10:47:18.807Z,13.01
2019-04-30T10:48:16.643Z,12.91
2019-04-30T10:49:18.936Z,12.81
2019-04-30T10:50:16.680Z,12.92
2019-04-30T10:51:18.744Z,12.58
2019-04-30T10:52:16.241Z,12.61
2019-04-30T10:53:16.500Z,12.89
2019-04-30T10:54:23.909Z,12.88
2019-04-30T10:55:16.770Z,12.85
2019-04-30T10:56:17.037Z,12.81
2019-04-30T10:57:16.310Z,12.88
2019-04-30T10:58:16.576Z,12.95
2019-04-30T10:59:16.845Z,12.78
2019-04-30T11:00:18.613Z,12.71
2019-04-30T11:01:19.133Z,12.84
2019-04-30T11:02:16.619Z,12.99
2019-04-30T11:03:19.670Z,12.84
2019-04-30T11:04:17.176Z,12.77
2019-04-30T11:05:16.449Z,12.84
2019-04-30T11:06:16.718Z,12.75
2019-04-30T11:07:18.609Z,12.96
2019-04-30T11:08:16.981Z,13.01
2019-04-30T11:09:16.238Z,13.04
2019-04-30T11:10:16.505Z,13.27
2019-04-30T11:11:16.531Z,13.37
2019-04-30T11:12:16.811Z,13.16
2019-04-30T11:13:17.073Z,13.02
2019-04-30T11:14:16.346Z,13.18
2019-04-30T11:15:16.618Z,13.23
2019-04-30T11:16:18.673Z,13.57
2019-04-30T11:17:19.086Z,13.67
2019-04-30T11:18:16.508Z,13.95
2019-04-30T11:19:16.408Z,13.67
2019-04-30T11:20:16.647Z,13.67
2019-04-30T11:21:16.609Z,13.47
2019-04-30T11:22:17.374Z,13.50
2019-04-30T11:23:17.015Z,13.50
2019-04-30T11:24:16.686Z,13.63
2019-04-30T11:25:16.345Z,13.46
2019-04-30T11:26:17.233Z,13.47
2019-04-30T11:27:16.977Z,13.50
2019-04-30T11:28:17.183Z,13.27
2019-04-30T11:29:16.648Z,13.46
2019-04-30T11:30:21.138Z,13.55
2019-04-30T11:31:16.450Z,13.55
2019-04-30T11:32:17.299Z,13.49
2019-04-30T11:33:17.091Z,13.65
2019-04-30T11:34:16.758Z,13.64
2019-04-30T11:35:18.358Z,13.85
2019-04-30T11:36:16.986Z,13.97
2019-04-30T11:37:16.578Z,14.11
2019-04-30T11:38:18.916Z,14.19
2019-04-30T11:39:18.420Z,13.81
2019-04-30T11:40:16.931Z,13.94
2019-04-30T11:41:29.405Z,14.20
2019-04-30T11:42:17.104Z,14.05
2019-04-30T11:43:18.164Z,14.22
2019-04-30T11:44:28.346Z,14.18
2019-04-30T11:45:16.695Z,14.08
2019-04-30T11:46:18.664Z,14.02
2019-04-30T11:47:17.031Z,14.00
2019-04-30T11:48:16.292Z,14.08
2019-04-30T11:49:16.557Z,14.49
2019-04-30T11:50:16.836Z,14.37
2019-04-30T11:51:16.887Z,14.50
2019-04-30T11:52:17.162Z,14.36
2019-04-30T11:53:25.155Z,14.32
2019-04-30T11:54:16.489Z,14.29
2019-04-30T11:55:16.781Z,14.02
2019-04-30T11:56:17.050Z,14.09
2019-04-30T11:57:16.324Z,14.08
2019-04-30T11:58:21.511Z,14.37
2019-04-30T11:59:16.316Z,14.35
2019-04-30T12:00:18.547Z,14.26
2019-04-30T12:01:16.645Z,14.36
2019-04-30T12:02:16.914Z,14.29
2019-04-30T12:03:19.112Z,14.30
2019-04-30T12:04:16.605Z,14.53
2019-04-30T12:05:20.393Z,14.70
2019-04-30T12:06:18.483Z,14.71
2019-04-30T12:07:16.804Z,14.73
2019-04-30T12:08:17.067Z,14.73
2019-04-30T12:09:16.333Z,14.76
2019-04-30T12:10:16.605Z,14.81
2019-04-30T12:11:16.647Z,14.74
2019-04-30T12:12:18.791Z,15.05
2019-04-30T12:13:16.292Z,14.68
2019-04-30T12:14:18.176Z,14.52
2019-04-30T12:15:16.525Z,14.55
2019-04-30T12:16:18.438Z,14.41
2019-04-30T12:17:16.901Z,14.36
2019-04-30T12:18:17.169Z,14.62
2019-04-30T12:19:16.432Z,14.67
2019-04-30T12:20:16.702Z,14.87
2019-04-30T12:21:16.745Z,14.95
2019-04-30T12:22:19.840Z,14.91
2019-04-30T12:23:16.578Z,15.31
2019-04-30T12:24:16.848Z,15.15
2019-04-30T12:25:18.673Z,15.26
2019-04-30T12:26:18.863Z,15.21
2019-04-30T12:27:16.355Z,15.29
2019-04-30T12:28:16.621Z,15.41
2019-04-30T12:29:18.972Z,15.35
2019-04-30T12:30:16.461Z,15.05
2019-04-30T12:31:18.540Z,15.14
2019-04-30T12:32:16.993Z,15.14
2019-04-30T12:33:16.252Z,14.91
2019-04-30T12:34:16.519Z,14.94
2019-04-30T12:35:16.790Z,15.16
2019-04-30T12:36:18.736Z,15.12
2019-04-30T12:37:16.215Z,14.71
2019-04-30T12:38:16.539Z,14.66
2019-04-30T12:39:16.341Z,14.80
2019-04-30T12:40:26.518Z,14.94
2019-04-30T12:41:17.021Z,14.90
2019-04-30T12:42:16.280Z,14.98
2019-04-30T12:43:16.550Z,15.11
2019-04-30T12:44:16.817Z,14.81
2019-04-30T12:45:17.102Z,14.98
2019-04-30T12:46:16.368Z,15.21
2019-04-30T12:47:19.283Z,15.16
2019-04-30T12:48:16.256Z,15.06
2019-04-30T12:49:16.519Z,15.54
2019-04-30T12:50:16.790Z,15.54
2019-04-30T12:51:16.830Z,15.84
2019-04-30T12:52:17.106Z,15.84
2019-04-30T12:53:16.370Z,15.53
2019-04-30T12:54:16.634Z,15.94
2019-04-30T12:55:16.892Z,15.92
2019-04-30T12:56:17.153Z,16.07
2019-04-30T12:57:16.419Z,15.92
2019-04-30T12:58:16.698Z,15.90
2019-04-30T12:59:16.977Z,15.74
2019-04-30T13:00:16.255Z,15.62
2019-04-30T13:01:16.298Z,15.66
2019-04-30T13:02:16.615Z,15.97
2019-04-30T13:03:16.886Z,15.85
2019-04-30T13:04:19.210Z,15.88
2019-04-30T13:05:18.678Z,16.22
2019-04-30T13:06:17.381Z,16.11
2019-04-30T13:07:17.571Z,16.18
2019-04-30T13:08:16.725Z,16.35
2019-04-30T13:09:19.214Z,16.50